createdAt,value
2016-08-01T00:00:40.012Z,21.82
2016-08-01T00:01:40.045Z,21.85
2016-08-01T00:02:40.065Z,21.83
2016-08-01T00:03:40.099Z,21.8
2016-08-01T00:04:40.134Z,21.79
2016-08-01T00:05:40.154Z,21.82
2016-08-01T00:06:40.178Z,21.77
2016-08-01T00:07:40.203Z,21.79
2016-08-01T00:08:40.231Z,21.72
2016-08-01T00:09:40.259Z,21.8
2016-08-01T00:10:40.286Z,21.73
2016-08-01T00:11:40.310Z,21.73
2016-08-01T00:12:40.345Z,21.76
2016-08-01T00:13:40.371Z,21.76
2016-08-01T00:14:41.108Z,21.88
2016-08-01T00:15:40.427Z,21.77
2016-08-01T00:16:40.465Z,21.82
2016-08-01T00:17:40.479Z,21.75
2016-08-01T00:18:40.520Z,21.73
2016-08-01T00:19:40.534Z,21.75
2016-08-01T00:20:40.560Z,21.76
2016-08-01T00:21:40.594Z,21.76
2016-08-01T00:22:41.330Z,21.83
2016-08-01T00:23:40.641Z,21.77
2016-08-01T00:24:40.675Z,21.75
2016-08-01T00:25:40.710Z,21.77
2016-08-01T00:26:40.726Z,21.77
2016-08-01T00:27:40.764Z,21.7
2016-08-01T00:28:40.787Z,21.64
2016-08-01T00:29:40.813Z,21.7
2016-08-01T00:30:40.839Z,21.66
2016-08-01T00:31:40.869Z,21.75
2016-08-01T00:32:40.893Z,21.67
2016-08-01T00:33:40.922Z,21.64
2016-08-01T00:34:40.950Z,21.51
2016-08-01T00:35:40.975Z,21.57
2016-08-01T00:36:41.723Z,21.66
2016-08-01T00:37:41.038Z,21.62
2016-08-01T00:38:41.056Z,21.5
2016-08-01T00:39:41.797Z,21.52
2016-08-01T00:40:41.112Z,21.64
2016-08-01T00:41:41.140Z,21.61
2016-08-01T00:42:41.172Z,21.62
2016-08-01T00:43:41.922Z,21.61
2016-08-01T00:44:41.228Z,21.64
2016-08-01T00:45:41.256Z,21.62
2016-08-01T00:46:41.280Z,21.66
2016-08-01T00:47:41.328Z,21.69
2016-08-01T00:48:41.334Z,21.67
2016-08-01T00:49:41.361Z,21.67
2016-08-01T00:50:42.099Z,21.7
2016-08-01T00:51:41.416Z,21.62
2016-08-01T00:52:41.440Z,21.72
2016-08-01T00:53:41.473Z,21.7
2016-08-01T00:54:41.501Z,21.58
2016-08-01T00:55:41.545Z,21.64
2016-08-01T00:56:41.555Z,21.61
2016-08-01T00:57:41.580Z,21.67
2016-08-01T00:58:41.611Z,21.61
2016-08-01T00:59:41.637Z,21.61
2016-08-01T01:00:41.669Z,21.67
2016-08-01T01:01:41.691Z,21.67
2016-08-01T01:02:41.733Z,21.72
2016-08-01T01:03:41.768Z,21.67
2016-08-01T01:04:41.774Z,21.58
2016-08-01T01:05:42.510Z,21.66
2016-08-01T01:06:41.830Z,21.6
2016-08-01T01:07:41.854Z,21.67
2016-08-01T01:08:42.598Z,21.64
2016-08-01T01:09:42.624Z,21.62
2016-08-01T01:10:41.937Z,21.54
2016-08-01T01:11:41.981Z,21.52
2016-08-01T01:12:41.994Z,21.51
2016-08-01T01:13:42.023Z,21.55
2016-08-01T01:14:42.050Z,21.5
2016-08-01T01:15:42.787Z,21.46
2016-08-01T01:16:42.115Z,21.48
2016-08-01T01:17:42.842Z,21.45
2016-08-01T01:18:42.189Z,21.37
2016-08-01T01:19:42.198Z,21.4
2016-08-01T01:20:42.211Z,21.37
2016-08-01T01:21:42.249Z,21.33
2016-08-01T01:22:42.268Z,21.36
2016-08-01T01:23:42.296Z,21.29
2016-08-01T01:24:42.320Z,21.29
2016-08-01T01:25:42.347Z,21.3
2016-08-01T01:26:42.376Z,21.24
2016-08-01T01:27:42.414Z,21.15
2016-08-01T01:28:43.140Z,21.09
2016-08-01T01:29:42.458Z,21.12
2016-08-01T01:30:42.485Z,21.12
2016-08-01T01:31:43.223Z,21.12
2016-08-01T01:32:42.544Z,21.03
2016-08-01T01:33:42.586Z,21.03
2016-08-01T01:34:42.596Z,21.05
2016-08-01T01:35:42.630Z,21.03
2016-08-01T01:36:42.661Z,21.06
2016-08-01T01:37:42.674Z,20.93
2016-08-01T01:38:42.699Z,21.02
2016-08-01T01:39:42.731Z,21.09
2016-08-01T01:40:42.765Z,21.03
2016-08-01T01:41:42.783Z,21.05
2016-08-01T01:42:43.522Z,21
2016-08-01T01:43:42.847Z,21.03
2016-08-01T01:44:42.861Z,20.96
2016-08-01T01:45:42.895Z,21.06
2016-08-01T01:46:42.921Z,21.09
2016-08-01T01:47:42.948Z,21
2016-08-01T01:49:42.997Z,20.87
2016-08-01T01:50:43.025Z,20.9
2016-08-01T01:51:43.065Z,20.87
2016-08-01T01:52:43.082Z,20.93
2016-08-01T01:53:43.108Z,20.92
2016-08-01T01:54:43.133Z,20.87
2016-08-01T01:55:43.162Z,20.84
2016-08-01T01:56:43.189Z,20.9
2016-08-01T01:57:43.212Z,20.88
2016-08-01T01:58:43.241Z,20.93
2016-08-01T01:59:43.283Z,20.95
2016-08-01T02:00:44.004Z,20.84
2016-08-01T02:01:43.323Z,20.88
2016-08-01T02:02:43.346Z,20.88
2016-08-01T02:03:43.375Z,20.92
2016-08-01T02:04:43.401Z,20.84
2016-08-01T02:05:44.139Z,20.84
2016-08-01T02:06:43.457Z,20.81
2016-08-01T02:07:43.497Z,20.84
2016-08-01T02:08:43.515Z,20.87
2016-08-01T02:09:43.536Z,20.82
2016-08-01T02:10:43.564Z,20.7
2016-08-01T02:11:43.592Z,20.72
2016-08-01T02:12:43.615Z,20.72
2016-08-01T02:13:43.643Z,20.74
2016-08-01T02:14:43.672Z,20.77
2016-08-01T02:15:43.713Z,20.74
2016-08-01T02:16:44.445Z,20.77
2016-08-01T02:17:43.762Z,20.69
2016-08-01T02:18:43.780Z,20.75
2016-08-01T02:19:43.804Z,20.75
2016-08-01T02:20:43.834Z,20.8
2016-08-01T02:21:43.855Z,20.77
2016-08-01T02:22:43.921Z,20.66
2016-08-01T02:23:43.931Z,20.77
2016-08-01T02:24:43.938Z,20.81
2016-08-01T02:25:43.965Z,20.66
2016-08-01T02:26:43.987Z,20.63
2016-08-01T02:27:44.019Z,20.63
2016-08-01T02:28:44.753Z,20.69
2016-08-01T02:29:44.783Z,20.7
2016-08-01T02:30:44.807Z,20.67
2016-08-01T02:31:44.122Z,20.67
2016-08-01T02:32:44.152Z,20.62
2016-08-01T02:33:44.188Z,20.56
2016-08-01T02:34:44.204Z,20.58
2016-08-01T02:35:44.959Z,20.6
2016-08-01T02:36:44.265Z,20.51
2016-08-01T02:37:44.284Z,20.55
2016-08-01T02:38:44.313Z,20.65
2016-08-01T02:39:45.049Z,20.6
2016-08-01T02:40:44.366Z,20.62
2016-08-01T02:41:44.394Z,20.59
2016-08-01T02:42:44.416Z,20.63
2016-08-01T02:43:44.447Z,20.6
2016-08-01T02:44:44.473Z,20.62
2016-08-01T02:45:44.504Z,20.59
2016-08-01T02:46:44.525Z,20.66
2016-08-01T02:47:45.262Z,20.62
2016-08-01T02:48:44.577Z,20.66
2016-08-01T02:49:44.607Z,20.59
2016-08-01T02:50:46.055Z,20.56
2016-08-01T02:51:45.572Z,20.52
2016-08-01T02:52:45.405Z,20.55
2016-08-01T02:53:45.426Z,20.56
2016-08-01T02:54:44.740Z,20.58
2016-08-01T02:55:44.764Z,20.37
2016-08-01T02:56:46.211Z,20.41
2016-08-01T02:57:44.817Z,20.47
2016-08-01T02:58:44.847Z,20.4
2016-08-01T02:59:44.873Z,20.5
2016-08-01T03:00:44.900Z,20.41
2016-08-01T03:01:44.934Z,20.41
2016-08-01T03:02:44.953Z,20.47
2016-08-01T03:03:44.977Z,20.37
2016-08-01T03:04:45.005Z,20.5
2016-08-01T03:05:45.029Z,20.43
2016-08-01T03:06:45.767Z,20.44
2016-08-01T03:07:45.084Z,20.4
2016-08-01T03:08:45.839Z,20.41
2016-08-01T03:09:45.141Z,20.36
2016-08-01T03:10:45.162Z,20.44
2016-08-01T03:11:45.190Z,20.36
2016-08-01T03:12:45.214Z,20.37
2016-08-01T03:13:45.254Z,20.36
2016-08-01T03:14:45.271Z,20.32
2016-08-01T03:15:46.005Z,20.37
2016-08-01T03:16:46.054Z,20.36
2016-08-01T03:17:45.347Z,20.34
2016-08-01T03:18:45.372Z,20.32
2016-08-01T03:19:45.402Z,20.34
2016-08-01T03:20:45.430Z,20.37
2016-08-01T03:21:45.451Z,20.34
2016-08-01T03:22:45.493Z,20.32
2016-08-01T03:23:45.507Z,20.31
2016-08-01T03:24:45.550Z,20.36
2016-08-01T03:25:45.564Z,20.37
2016-08-01T03:26:45.588Z,20.36
2016-08-01T03:27:45.608Z,20.36
2016-08-01T03:28:45.634Z,20.36
2016-08-01T03:29:45.665Z,20.31
2016-08-01T03:30:45.693Z,20.29
2016-08-01T03:31:45.715Z,20.22
2016-08-01T03:32:46.453Z,20.32
2016-08-01T03:33:45.779Z,20.28
2016-08-01T03:34:45.795Z,20.36
2016-08-01T03:35:45.824Z,20.37
2016-08-01T03:36:45.845Z,20.34
2016-08-01T03:37:45.871Z,20.37
2016-08-01T03:38:45.903Z,20.32
2016-08-01T03:39:45.930Z,20.36
2016-08-01T03:40:45.952Z,20.34
2016-08-01T03:41:45.998Z,20.34
2016-08-01T03:42:46.010Z,20.36
2016-08-01T03:43:46.031Z,20.31
2016-08-01T03:44:46.062Z,20.25
2016-08-01T03:45:46.085Z,20.31
2016-08-01T03:46:46.820Z,20.21
2016-08-01T03:47:46.850Z,20.24
2016-08-01T03:48:46.163Z,20.29
2016-08-01T03:49:46.899Z,20.21
2016-08-01T03:50:46.231Z,20.31
2016-08-01T03:51:46.951Z,20.25
2016-08-01T03:52:46.270Z,20.22
2016-08-01T03:53:46.302Z,20.28
2016-08-01T03:54:46.322Z,20.26
2016-08-01T03:55:47.067Z,20.21
2016-08-01T03:56:46.380Z,20.18
2016-08-01T03:57:46.403Z,20.19
2016-08-01T03:58:46.440Z,20.07
2016-08-01T03:59:46.506Z,20.16
2016-08-01T04:00:46.482Z,20.16
2016-08-01T04:01:46.505Z,20.09
2016-08-01T04:02:46.536Z,20.16
2016-08-01T04:03:46.565Z,20.06
2016-08-01T04:04:46.597Z,20.14
2016-08-01T04:05:47.321Z,20.07
2016-08-01T04:06:46.659Z,20.1
2016-08-01T04:07:47.373Z,20.06
2016-08-01T04:08:46.694Z,20.06
2016-08-01T04:09:46.718Z,20.11
2016-08-01T04:10:46.742Z,20.09
2016-08-01T04:11:46.772Z,20.06
2016-08-01T04:12:46.795Z,20
2016-08-01T04:13:46.824Z,20.07
2016-08-01T04:14:46.851Z,20.03
2016-08-01T04:15:46.876Z,20.07
2016-08-01T04:16:46.900Z,20.11
2016-08-01T04:17:46.931Z,20.07
2016-08-01T04:18:46.956Z,20.06
2016-08-01T04:19:46.976Z,20.02
2016-08-01T04:20:47.015Z,20.02
2016-08-01T04:21:47.035Z,19.95
2016-08-01T04:22:47.770Z,20
2016-08-01T04:23:47.083Z,20.03
2016-08-01T04:24:47.109Z,20.07
2016-08-01T04:25:47.135Z,20.03
2016-08-01T04:26:47.164Z,20.07
2016-08-01T04:27:47.193Z,20.06
2016-08-01T04:28:47.226Z,20
2016-08-01T04:29:47.956Z,19.99
2016-08-01T04:30:47.984Z,20.04
2016-08-01T04:31:47.292Z,20
2016-08-01T04:32:47.323Z,20.11
2016-08-01T04:33:47.352Z,20.06
2016-08-01T04:34:48.086Z,20.02
2016-08-01T04:35:47.401Z,20.04
2016-08-01T04:36:47.441Z,20.02
2016-08-01T04:37:47.456Z,20.07
2016-08-01T04:38:48.191Z,20.03
2016-08-01T04:39:47.504Z,20
2016-08-01T04:40:48.957Z,20.07
2016-08-01T04:41:47.556Z,20.11
2016-08-01T04:42:47.580Z,20
2016-08-01T04:43:48.319Z,20
2016-08-01T04:44:47.635Z,19.96
2016-08-01T04:45:47.670Z,19.89
2016-08-01T04:46:47.696Z,19.95
2016-08-01T04:47:47.714Z,19.89
2016-08-01T04:48:47.757Z,19.96
2016-08-01T04:49:47.767Z,20.02
2016-08-01T04:50:47.794Z,20.04
2016-08-01T04:51:47.829Z,19.95
2016-08-01T04:52:48.553Z,20.04
2016-08-01T04:53:47.888Z,19.96
2016-08-01T04:54:47.899Z,20.03
2016-08-01T04:55:47.925Z,20.04
2016-08-01T04:56:47.952Z,20.03
2016-08-01T04:57:47.974Z,20.07
2016-08-01T04:58:48.004Z,20
2016-08-01T04:59:48.080Z,19.99
2016-08-01T05:00:48.760Z,20.11
2016-08-01T05:01:48.095Z,20
2016-08-01T05:02:48.116Z,19.99
2016-08-01T05:03:48.129Z,20
2016-08-01T05:04:48.159Z,20.03
2016-08-01T05:05:48.894Z,20.06
2016-08-01T05:06:48.209Z,19.99
2016-08-01T05:07:48.945Z,20.07
2016-08-01T05:08:48.274Z,20.07
2016-08-01T05:09:48.997Z,20.02
2016-08-01T05:10:48.336Z,20.07
2016-08-01T05:11:48.344Z,20.04
2016-08-01T05:12:48.369Z,20.06
2016-08-01T05:13:48.393Z,20.07
2016-08-01T05:14:48.419Z,20.11
2016-08-01T05:15:48.446Z,20.1
2016-08-01T05:16:48.473Z,20.1
2016-08-01T05:17:48.498Z,20.06
2016-08-01T05:18:48.527Z,20.11
2016-08-01T05:19:48.553Z,20.1
2016-08-01T05:20:48.579Z,20.07
2016-08-01T05:21:48.603Z,20.09
2016-08-01T05:22:48.631Z,20.13
2016-08-01T05:23:48.657Z,20.16
2016-08-01T05:24:48.685Z,20.18
2016-08-01T05:25:48.709Z,20.21
2016-08-01T05:26:48.736Z,20.19
2016-08-01T05:27:48.759Z,20.29
2016-08-01T05:28:48.789Z,20.29
2016-08-01T05:29:49.523Z,20.19
2016-08-01T05:30:48.838Z,20.22
2016-08-01T05:31:48.869Z,20.21
2016-08-01T05:32:48.896Z,20.26
2016-08-01T05:33:49.628Z,20.32
2016-08-01T05:34:49.652Z,20.31
2016-08-01T05:35:48.974Z,20.34
2016-08-01T05:36:49.708Z,20.32
2016-08-01T05:37:49.023Z,20.36
2016-08-01T05:38:49.053Z,20.4
2016-08-01T05:39:49.086Z,20.36
2016-08-01T05:40:49.105Z,20.4
2016-08-01T05:41:49.131Z,20.31
2016-08-01T05:42:49.159Z,20.34
2016-08-01T05:43:49.184Z,20.39
2016-08-01T05:44:49.210Z,20.44
2016-08-01T05:45:49.955Z,20.36
2016-08-01T05:46:49.263Z,20.44
2016-08-01T05:47:49.306Z,20.39
2016-08-01T05:48:49.321Z,20.43
2016-08-01T05:49:49.345Z,20.48
2016-08-01T05:50:49.386Z,20.59
2016-08-01T05:51:49.399Z,20.39
2016-08-01T05:52:49.423Z,20.39
2016-08-01T05:53:49.454Z,20.55
2016-08-01T05:54:49.478Z,20.62
2016-08-01T05:55:49.526Z,20.56
2016-08-01T05:56:49.535Z,20.59
2016-08-01T05:57:49.560Z,20.63
2016-08-01T05:58:49.585Z,20.7
2016-08-01T05:59:50.386Z,20.66
2016-08-01T06:00:49.638Z,20.65
2016-08-01T06:01:49.663Z,20.74
2016-08-01T06:02:50.401Z,20.67
2016-08-01T06:03:49.821Z,20.72
2016-08-01T06:04:49.749Z,20.77
2016-08-01T06:05:49.777Z,20.77
2016-08-01T06:06:49.803Z,20.8
2016-08-01T06:07:49.823Z,20.88
2016-08-01T06:08:49.852Z,20.85
2016-08-01T06:09:49.880Z,20.88
2016-08-01T06:10:49.904Z,20.9
2016-08-01T06:11:50.674Z,21
2016-08-01T06:12:49.967Z,21
2016-08-01T06:13:49.987Z,20.99
2016-08-01T06:14:50.728Z,21.05
2016-08-01T06:15:50.043Z,21.09
2016-08-01T06:16:50.066Z,21.12
2016-08-01T06:17:50.098Z,21.11
2016-08-01T06:18:50.131Z,21.2
2016-08-01T06:19:50.891Z,21.21
2016-08-01T06:20:50.185Z,21.14
2016-08-01T06:21:50.208Z,21.24
2016-08-01T06:22:50.938Z,21.33
2016-08-01T06:23:50.256Z,21.27
2016-08-01T06:24:50.286Z,21.27
2016-08-01T06:25:50.310Z,21.36
2016-08-01T06:26:50.338Z,21.32
2016-08-01T06:27:51.076Z,21.29
2016-08-01T06:28:50.398Z,21.29
2016-08-01T06:29:51.129Z,21.27
2016-08-01T06:30:51.159Z,21.33
2016-08-01T06:31:50.472Z,21.25
2016-08-01T06:32:50.502Z,21.29
2016-08-01T06:33:51.236Z,21.27
2016-08-01T06:34:50.556Z,21.21
2016-08-01T06:35:50.584Z,21.22
2016-08-01T06:36:50.731Z,21.32
2016-08-01T06:37:50.654Z,21.37
2016-08-01T06:38:50.663Z,21.48
2016-08-01T06:39:51.402Z,21.45
2016-08-01T06:40:50.719Z,21.52
2016-08-01T06:41:50.742Z,21.6
2016-08-01T06:42:51.520Z,21.64
2016-08-01T06:43:50.801Z,21.57
2016-08-01T06:44:50.832Z,21.67
2016-08-01T06:45:50.852Z,21.67
2016-08-01T06:46:50.882Z,21.77
2016-08-01T06:47:51.619Z,21.7
2016-08-01T06:48:50.935Z,21.8
2016-08-01T06:49:50.965Z,21.75
2016-08-01T06:50:50.992Z,21.77
2016-08-01T06:51:51.042Z,21.8
2016-08-01T06:52:51.048Z,21.77
2016-08-01T06:53:51.077Z,21.79
2016-08-01T06:54:51.809Z,21.67
2016-08-01T06:55:51.131Z,21.67
2016-08-01T06:56:51.161Z,21.67
2016-08-01T06:57:51.192Z,21.79
2016-08-01T06:58:51.208Z,21.69
2016-08-01T06:59:51.257Z,21.75
2016-08-01T07:00:51.267Z,21.69
2016-08-01T07:01:51.291Z,21.72
2016-08-01T07:02:51.324Z,21.7
2016-08-01T07:03:51.349Z,21.79
2016-08-01T07:05:51.407Z,21.8
2016-08-01T07:06:52.139Z,21.93
2016-08-01T07:07:51.475Z,21.93
2016-08-01T07:08:51.488Z,21.96
2016-08-01T07:09:52.225Z,22.04
2016-08-01T07:10:51.543Z,22.02
2016-08-01T07:11:51.570Z,22.14
2016-08-01T07:12:51.596Z,22.18
2016-08-01T07:13:51.627Z,22.25
2016-08-01T07:14:52.366Z,22.17
2016-08-01T07:15:51.692Z,22.25
2016-08-01T07:16:51.713Z,22.3
2016-08-01T07:17:53.153Z,22.29
2016-08-01T07:18:51.765Z,22.43
2016-08-01T07:20:51.824Z,22.44
2016-08-01T07:21:51.853Z,22.44
2016-08-01T07:22:52.584Z,22.54
2016-08-01T07:23:51.910Z,22.63
2016-08-01T07:24:51.944Z,22.63
2016-08-01T07:25:52.674Z,22.65
2016-08-01T07:26:51.991Z,22.62
2016-08-01T07:27:52.025Z,22.75
2016-08-01T07:28:52.044Z,22.78
2016-08-01T07:29:52.075Z,22.81
2016-08-01T07:30:52.100Z,22.93
2016-08-01T07:31:52.130Z,22.93
2016-08-01T07:32:52.159Z,22.96
2016-08-01T07:33:52.184Z,23.06
2016-08-01T07:35:52.248Z,23.06
2016-08-01T07:36:52.268Z,23.06
2016-08-01T07:37:52.298Z,23.08
2016-08-01T07:38:52.329Z,22.87
2016-08-01T07:39:52.356Z,23.06
2016-08-01T07:40:53.094Z,23.02
2016-08-01T07:41:52.416Z,23.06
2016-08-01T07:42:52.456Z,23.1
2016-08-01T07:43:52.469Z,23.08
2016-08-01T07:44:52.504Z,23.17
2016-08-01T07:45:52.661Z,23.15
2016-08-01T07:46:52.548Z,23.1
2016-08-01T07:47:52.582Z,23.15
2016-08-01T07:48:52.610Z,23.2
2016-08-01T07:49:52.664Z,23.2
2016-08-01T07:50:52.673Z,23.09
2016-08-01T07:51:52.699Z,23.2
2016-08-01T07:52:52.721Z,23.2
2016-08-01T07:53:52.750Z,23.23
2016-08-01T07:54:53.488Z,23.25
2016-08-01T07:55:52.811Z,23.27
2016-08-01T07:56:52.839Z,23.21
2016-08-01T07:57:52.880Z,23.32
2016-08-01T07:58:52.903Z,23.39
2016-08-01T07:59:52.972Z,23.48
2016-08-01T08:00:52.953Z,23.56
2016-08-01T08:01:53.687Z,23.54
2016-08-01T08:02:53.008Z,23.55
2016-08-01T08:03:53.745Z,23.65
2016-08-01T08:04:53.084Z,23.62
2016-08-01T08:05:53.803Z,23.58
2016-08-01T08:06:53.123Z,23.62
2016-08-01T08:07:53.147Z,23.68
2016-08-01T08:08:53.180Z,23.66
2016-08-01T08:09:53.209Z,23.63
2016-08-01T08:10:53.236Z,23.63
2016-08-01T08:11:54.684Z,23.73
2016-08-01T08:12:53.301Z,23.65
2016-08-01T08:13:53.324Z,23.69
2016-08-01T08:14:53.348Z,23.69
2016-08-01T08:15:53.386Z,23.77
2016-08-01T08:16:53.410Z,23.77
2016-08-01T08:17:54.147Z,23.73
2016-08-01T08:18:53.464Z,23.71
2016-08-01T08:19:53.495Z,23.81
2016-08-01T08:20:53.525Z,23.83
2016-08-01T08:21:53.549Z,23.92
2016-08-01T08:22:53.599Z,24.01
2016-08-01T08:23:53.612Z,23.99
2016-08-01T08:24:53.638Z,23.92
2016-08-01T08:25:53.665Z,23.92
2016-08-01T08:26:53.699Z,23.86
2016-08-01T08:27:53.727Z,23.96
2016-08-01T08:28:53.752Z,23.92
2016-08-01T08:29:53.779Z,23.93
2016-08-01T08:30:53.816Z,23.93
2016-08-01T08:31:54.557Z,23.84
2016-08-01T08:32:53.871Z,24.02
2016-08-01T08:33:53.900Z,23.91
2016-08-01T08:34:55.369Z,23.88
2016-08-01T08:35:53.960Z,23.86
2016-08-01T08:36:53.983Z,23.8
2016-08-01T08:37:54.022Z,23.88
2016-08-01T08:38:54.044Z,23.88
2016-08-01T08:39:54.077Z,23.88
2016-08-01T08:40:54.099Z,23.93
2016-08-01T08:41:54.132Z,23.91
2016-08-01T08:42:54.157Z,23.93
2016-08-01T08:43:54.895Z,23.95
2016-08-01T08:44:54.227Z,23.96
2016-08-01T08:45:54.251Z,24.08
2016-08-01T08:46:54.277Z,24.06
2016-08-01T08:47:54.302Z,24.14
2016-08-01T08:48:54.333Z,24.2
2016-08-01T08:49:54.368Z,24.11
2016-08-01T08:50:54.388Z,24.2
2016-08-01T08:51:54.416Z,24.26
2016-08-01T08:52:54.451Z,24.32
2016-08-01T08:53:54.482Z,24.29
2016-08-01T08:54:55.216Z,24.3
2016-08-01T08:55:54.536Z,24.3
2016-08-01T08:56:54.573Z,24.38
2016-08-01T08:57:54.591Z,24.53
2016-08-01T08:58:54.626Z,24.58
2016-08-01T08:59:54.653Z,24.58
2016-08-01T09:00:54.685Z,24.5
2016-08-01T09:01:54.723Z,24.54
2016-08-01T09:02:54.752Z,24.53
2016-08-01T09:03:54.782Z,24.54
2016-08-01T09:04:55.508Z,24.43
2016-08-01T09:05:54.832Z,24.42
2016-08-01T09:06:55.574Z,24.5
2016-08-01T09:07:54.896Z,24.45
2016-08-01T09:08:54.916Z,24.53
2016-08-01T09:09:54.948Z,24.63
2016-08-01T09:10:54.985Z,24.63
2016-08-01T09:11:55.006Z,24.65
2016-08-01T09:12:55.753Z,24.73
2016-08-01T09:13:55.063Z,24.74
2016-08-01T09:14:56.515Z,24.76
2016-08-01T09:15:55.128Z,24.78
2016-08-01T09:16:55.157Z,24.84
2016-08-01T09:17:55.908Z,24.85
2016-08-01T09:18:55.215Z,24.95
2016-08-01T09:19:55.952Z,24.96
2016-08-01T09:20:55.276Z,25.03
2016-08-01T09:21:56.225Z,25.13
2016-08-01T09:22:55.328Z,25.23
2016-08-01T09:23:55.365Z,25.36
2016-08-01T09:24:55.390Z,25.46
2016-08-01T09:25:55.420Z,25.36
2016-08-01T09:26:55.448Z,25.47
2016-08-01T09:27:56.909Z,25.51
2016-08-01T09:28:56.227Z,25.65
2016-08-01T09:29:55.547Z,25.6
2016-08-01T09:30:55.566Z,25.73
2016-08-01T09:31:55.596Z,25.68
2016-08-01T09:32:55.638Z,25.75
2016-08-01T09:33:55.661Z,25.7
2016-08-01T09:34:55.695Z,25.78
2016-08-01T09:35:55.721Z,25.78
2016-08-01T09:36:55.760Z,25.69
2016-08-01T09:37:55.778Z,25.84
2016-08-01T09:38:55.810Z,25.77
2016-08-01T09:39:55.841Z,25.77
2016-08-01T09:40:57.290Z,25.69
2016-08-01T09:41:55.904Z,25.69
2016-08-01T09:42:55.937Z,25.68
2016-08-01T09:43:56.674Z,25.66
2016-08-01T09:44:56.013Z,25.69
2016-08-01T09:45:56.031Z,25.66
2016-08-01T09:46:56.049Z,25.63
2016-08-01T09:47:56.080Z,25.73
2016-08-01T09:48:56.113Z,25.72
2016-08-01T09:49:56.146Z,25.68
2016-08-01T09:50:56.886Z,25.77
2016-08-01T09:51:56.219Z,25.9
2016-08-01T09:52:56.235Z,25.95
2016-08-01T09:53:56.264Z,26.05
2016-08-01T09:54:56.301Z,26.03
2016-08-01T09:55:56.329Z,26.15
2016-08-01T09:56:56.353Z,26.1
2016-08-01T09:57:56.390Z,26.15
2016-08-01T09:58:56.426Z,26.31
2016-08-01T09:59:56.499Z,26.38
2016-08-01T10:00:56.478Z,26.4
2016-08-01T10:01:56.517Z,26.4
2016-08-01T10:02:56.543Z,26.33
2016-08-01T10:03:56.570Z,26.31
2016-08-01T10:04:56.598Z,26.26
2016-08-01T10:05:56.635Z,26.13
2016-08-01T10:06:56.676Z,26.13
2016-08-01T10:07:57.403Z,26.03
2016-08-01T10:08:56.724Z,26.06
2016-08-01T10:09:56.753Z,26.1
2016-08-01T10:10:56.785Z,26.05
2016-08-01T10:11:56.815Z,26.05
2016-08-01T10:12:56.850Z,26.1
2016-08-01T10:13:56.874Z,26.15
2016-08-01T10:14:56.920Z,26.29
2016-08-01T10:15:56.942Z,26.28
2016-08-01T10:16:56.972Z,26.28
2016-08-01T10:17:57.000Z,26.36
2016-08-01T10:18:57.026Z,26.37
2016-08-01T10:19:57.771Z,26.29
2016-08-01T10:20:57.801Z,26.33
2016-08-01T10:21:57.121Z,26.4
2016-08-01T10:22:57.153Z,26.37
2016-08-01T10:23:57.190Z,26.4
2016-08-01T10:24:57.219Z,26.44
2016-08-01T10:25:57.249Z,26.48
2016-08-01T10:26:57.272Z,26.6
2016-08-01T10:27:58.016Z,26.62
2016-08-01T10:28:57.339Z,26.58
2016-08-01T10:29:57.368Z,26.59
2016-08-01T10:30:58.106Z,26.45
2016-08-01T10:31:57.446Z,26.44
2016-08-01T10:32:57.469Z,26.47
2016-08-01T10:33:58.206Z,26.63
2016-08-01T10:34:57.528Z,26.62
2016-08-01T10:35:57.551Z,26.7
2016-08-01T10:36:57.582Z,26.59
2016-08-01T10:37:57.613Z,26.62
2016-08-01T10:38:57.644Z,26.52
2016-08-01T10:39:57.677Z,26.52
2016-08-01T10:40:58.418Z,26.45
2016-08-01T10:41:57.745Z,26.37
2016-08-01T10:42:57.765Z,26.4
2016-08-01T10:43:57.811Z,26.34
2016-08-01T10:44:57.831Z,26.36
2016-08-01T10:45:57.858Z,26.31
2016-08-01T10:46:57.891Z,26.29
2016-08-01T10:47:57.943Z,26.26
2016-08-01T10:48:57.952Z,26.15
2016-08-01T10:49:57.984Z,26.02
2016-08-01T10:50:58.015Z,26.09
2016-08-01T10:51:58.043Z,26.03
2016-08-01T10:52:58.080Z,26.05
2016-08-01T10:53:58.101Z,26.06
2016-08-01T10:54:58.134Z,25.98
2016-08-01T10:55:58.880Z,26.02
2016-08-01T10:56:58.194Z,25.95
2016-08-01T10:57:58.229Z,25.95
2016-08-01T10:58:58.271Z,25.99
2016-08-01T10:59:58.289Z,26
2016-08-01T11:00:58.317Z,26.15
2016-08-01T11:01:58.347Z,26.09
2016-08-01T11:02:58.377Z,26.15
2016-08-01T11:03:58.410Z,26.1
2016-08-01T11:04:59.858Z,26.02
2016-08-01T11:05:58.475Z,25.96
2016-08-01T11:06:58.498Z,26.07
2016-08-01T11:07:58.528Z,26.1
2016-08-01T11:08:59.271Z,26.03
2016-08-01T11:09:59.297Z,26.09
2016-08-01T11:10:59.332Z,25.96
2016-08-01T11:11:58.652Z,26.05
2016-08-01T11:12:58.680Z,26.15
2016-08-01T11:13:58.712Z,26.09
2016-08-01T11:14:58.765Z,26.06
2016-08-01T11:15:58.777Z,26.1
2016-08-01T11:16:58.805Z,26.23
2016-08-01T11:17:58.835Z,26.16
2016-08-01T11:18:59.572Z,26.18
2016-08-01T11:19:58.897Z,26.22
2016-08-01T11:20:58.922Z,26.06
2016-08-01T11:21:59.662Z,26.13
2016-08-01T11:22:58.986Z,26.09
2016-08-01T11:23:59.015Z,26.18
2016-08-01T11:24:59.046Z,26.21
2016-08-01T11:25:59.079Z,26.23
2016-08-01T11:26:59.108Z,26.23
2016-08-01T11:27:59.134Z,26.28
2016-08-01T11:28:59.176Z,26.16
2016-08-01T11:29:59.205Z,26.05
2016-08-01T11:30:59.229Z,26.06
2016-08-01T11:31:59.259Z,26.13
2016-08-01T11:32:59.289Z,26.02
2016-08-01T11:33:59.330Z,26.09
2016-08-01T11:34:59.346Z,26.05
2016-08-01T11:35:59.378Z,26.13
2016-08-01T11:36:59.408Z,26.03
2016-08-01T11:38:00.151Z,25.96
2016-08-01T11:38:59.469Z,25.99
2016-08-01T11:40:00.211Z,25.98
2016-08-01T11:40:59.537Z,25.93
2016-08-01T11:41:59.563Z,25.91
2016-08-01T11:43:00.302Z,25.98
2016-08-01T11:44:00.334Z,25.93
2016-08-01T11:44:59.650Z,25.9
2016-08-01T11:45:59.701Z,25.9
2016-08-01T11:46:59.712Z,25.93
2016-08-01T11:48:00.456Z,25.98
2016-08-01T11:48:59.774Z,26.07
2016-08-01T11:49:59.807Z,26.1
2016-08-01T11:50:59.854Z,26.1
2016-08-01T11:51:59.871Z,26.23
2016-08-01T11:52:59.896Z,26.28
2016-08-01T11:53:59.931Z,26.4
2016-08-01T11:54:59.956Z,26.37
2016-08-01T11:56:00.002Z,26.36
2016-08-01T11:57:00.022Z,26.43
2016-08-01T11:58:00.047Z,26.51
2016-08-01T11:59:00.079Z,26.44
2016-08-01T12:00:00.108Z,26.55
2016-08-01T12:01:00.148Z,26.52
2016-08-01T12:02:00.171Z,26.52
2016-08-01T12:03:00.207Z,26.51
2016-08-01T12:04:00.234Z,26.51
2016-08-01T12:05:00.262Z,26.48
2016-08-01T12:06:00.324Z,26.48
2016-08-01T12:07:01.035Z,26.43
2016-08-01T12:08:00.359Z,26.51
2016-08-01T12:09:00.388Z,26.6
2016-08-01T12:10:00.418Z,26.66
2016-08-01T12:11:00.445Z,26.62
2016-08-01T12:12:00.479Z,26.66
2016-08-01T12:13:00.529Z,26.78
2016-08-01T12:14:00.538Z,26.77
2016-08-01T12:15:01.990Z,26.84
2016-08-01T12:16:00.603Z,26.89
2016-08-01T12:17:00.632Z,26.9
2016-08-01T12:18:00.665Z,26.99
2016-08-01T12:19:00.692Z,26.89
2016-08-01T12:20:00.736Z,26.7
2016-08-01T12:22:00.788Z,26.81
2016-08-01T12:23:00.826Z,26.77
2016-08-01T12:24:00.847Z,26.99
2016-08-01T12:25:00.881Z,27.03
2016-08-01T12:26:01.618Z,27.1
2016-08-01T12:27:02.362Z,27.1
2016-08-01T12:28:00.968Z,27.25
2016-08-01T12:29:01.020Z,27.21
2016-08-01T12:30:01.033Z,27.25
2016-08-01T12:31:01.065Z,27.22
2016-08-01T12:32:01.807Z,27.21
2016-08-01T12:33:01.127Z,27.29
2016-08-01T12:34:01.164Z,27.17
2016-08-01T12:35:01.191Z,27.22
2016-08-01T12:37:01.254Z,27.22
2016-08-01T12:38:01.282Z,27.22
2016-08-01T12:39:02.025Z,27.14
2016-08-01T12:40:01.344Z,27.1
2016-08-01T12:41:02.086Z,27.08
2016-08-01T12:42:02.124Z,27.05
2016-08-01T12:43:01.436Z,27.1
2016-08-01T12:44:01.473Z,27.08
2016-08-01T12:45:02.214Z,27.12
2016-08-01T12:46:01.549Z,27.11
2016-08-01T12:47:01.564Z,27.17
2016-08-01T12:48:02.305Z,27.15
2016-08-01T12:49:01.627Z,27.03
2016-08-01T12:50:01.658Z,26.96
2016-08-01T12:51:01.688Z,26.99
2016-08-01T12:52:01.718Z,27.05
2016-08-01T12:53:03.169Z,27.02
2016-08-01T12:54:01.785Z,27.03
2016-08-01T12:55:02.521Z,27.02
2016-08-01T12:56:01.845Z,27.03
2016-08-01T12:57:01.874Z,27.02
2016-08-01T12:58:01.904Z,26.96
2016-08-01T12:59:01.937Z,26.96
2016-08-01T13:00:01.971Z,27
2016-08-01T13:01:02.000Z,26.89
2016-08-01T13:02:02.742Z,26.97
2016-08-01T13:03:02.061Z,26.95